sensor_id;sensor_type;location;lat;lon;timestamp;temperature;humidity
17715;DHT22;8977;50.902;4.314;2024-03-02T00:01:28;10.80;99.90
17715;DHT22;8977;50.902;4.314;2024-03-02T00:03:55;10.80;99.90
17715;DHT22;8977;50.902;4.314;2024-03-02T00:06:22;10.80;99.90
17715;DHT22;8977;50.902;4.314;2024-03-02T00:08:50;10.80;99.90
17715;DHT22;8977;50.902;4.314;2024-03-02T00:11:18;10.70;99.90
17715;DHT22;8977;50.902;4.314;2024-03-02T00:13:45;10.70;99.90
17715;DHT22;8977;50.902;4.314;2024-03-02T00:16:12;10.70;99.90
17715;DHT22;8977;50.902;4.314;2024-03-02T00:18:39;10.70;99.90
17715;DHT22;8977;50.902;4.314;2024-03-02T00:21:07;10.70;99.90
17715;DHT22;8977;50.902;4.314;2024-03-02T00:23:35;10.60;99.90
17715;DHT22;8977;50.902;4.314;2024-03-02T00:26:04;10.60;99.90
17715;DHT22;8977;50.902;4.314;2024-03-02T00:28:34;10.60;99.90
17715;DHT22;8977;50.902;4.314;2024-03-02T00:31:03;10.60;99.90
17715;DHT22;8977;50.902;4.314;2024-03-02T00:33:32;10.60;99.90
17715;DHT22;8977;50.902;4.314;2024-03-02T00:36:00;10.60;99.90
17715;DHT22;8977;50.902;4.314;2024-03-02T00:38:29;10.60;99.90
17715;DHT22;8977;50.902;4.314;2024-03-02T00:40:57;10.60;99.90
17715;DHT22;8977;50.902;4.314;2024-03-02T00:43:44;10.60;99.90
17715;DHT22;8977;50.902;4.314;2024-03-02T00:46:12;10.60;99.90
17715;DHT22;8977;50.902;4.314;2024-03-02T00:48:45;10.60;99.90
17715;DHT22;8977;50.902;4.314;2024-03-02T00:51:14;10.60;99.90
17715;DHT22;8977;50.902;4.314;2024-03-02T00:53:41;10.60;99.90
17715;DHT22;8977;50.902;4.314;2024-03-02T00:56:10;10.70;99.90
17715;DHT22;8977;50.902;4.314;2024-03-02T00:58:37;10.70;99.90
17715;DHT22;8977;50.902;4.314;2024-03-02T01:01:05;10.70;99.90
17715;DHT22;8977;50.902;4.314;2024-03-02T01:03:32;10.60;99.90
17715;DHT22;8977;50.902;4.314;2024-03-02T01:06:00;10.70;99.90
17715;DHT22;8977;50.902;4.314;2024-03-02T01:08:27;10.70;99.90
17715;DHT22;8977;50.902;4.314;2024-03-02T01:10:54;10.70;99.90
17715;DHT22;8977;50.902;4.314;2024-03-02T01:13:22;10.70;99.90
17715;DHT22;8977;50.902;4.314;2024-03-02T01:15:49;10.70;99.90
17715;DHT22;8977;50.902;4.314;2024-03-02T01:18:17;10.70;99.90
17715;DHT22;8977;50.902;4.314;2024-03-02T01:20:44;10.70;99.90
17715;DHT22;8977;50.902;4.314;2024-03-02T01:23:11;10.60;99.90
17715;DHT22;8977;50.902;4.314;2024-03-02T01:25:38;10.70;99.90
17715;DHT22;8977;50.902;4.314;2024-03-02T01:28:05;10.60;99.90
17715;DHT22;8977;50.902;4.314;2024-03-02T01:30:32;10.60;99.90
17715;DHT22;8977;50.902;4.314;2024-03-02T01:32:59;10.70;99.90
17715;DHT22;8977;50.902;4.314;2024-03-02T01:35:29;10.70;99.90
17715;DHT22;8977;50.902;4.314;2024-03-02T01:37:55;10.70;99.90
17715;DHT22;8977;50.902;4.314;2024-03-02T01:40:22;10.70;99.90
17715;DHT22;8977;50.902;4.314;2024-03-02T01:42:52;10.80;99.90
17715;DHT22;8977;50.902;4.314;2024-03-02T01:45:19;10.70;99.90
17715;DHT22;8977;50.902;4.314;2024-03-02T01:47:47;10.70;99.90
17715;DHT22;8977;50.902;4.314;2024-03-02T01:50:14;10.70;99.90
17715;DHT22;8977;50.902;4.314;2024-03-02T01:52:42;10.70;99.90
17715;DHT22;8977;50.902;4.314;2024-03-02T01:55:09;10.80;99.90
17715;DHT22;8977;50.902;4.314;2024-03-02T01:57:36;10.80;99.90
17715;DHT22;8977;50.902;4.314;2024-03-02T02:00:04;10.70;99.90
17715;DHT22;8977;50.902;4.314;2024-03-02T02:02:35;10.80;99.90
17715;DHT22;8977;50.902;4.314;2024-03-02T02:05:03;10.80;99.90
17715;DHT22;8977;50.902;4.314;2024-03-02T02:07:30;10.70;99.90
17715;DHT22;8977;50.902;4.314;2024-03-02T02:09:58;10.70;99.90
17715;DHT22;8977;50.902;4.314;2024-03-02T02:12:25;10.60;99.90
17715;DHT22;8977;50.902;4.314;2024-03-02T02:14:52;10.60;99.90
17715;DHT22;8977;50.902;4.314;2024-03-02T02:17:20;10.70;99.90
17715;DHT22;8977;50.902;4.314;2024-03-02T02:19:47;10.70;99.90
17715;DHT22;8977;50.902;4.314;2024-03-02T02:22:15;10.70;99.90
17715;DHT22;8977;50.902;4.314;2024-03-02T02:24:42;10.70;99.90
17715;DHT22;8977;50.902;4.314;2024-03-02T02:27:09;10.70;99.90
17715;DHT22;8977;50.902;4.314;2024-03-02T02:29:38;10.70;99.90
17715;DHT22;8977;50.902;4.314;2024-03-02T02:32:05;10.70;99.90
17715;DHT22;8977;50.902;4.314;2024-03-02T02:34:32;10.70;99.90
17715;DHT22;8977;50.902;4.314;2024-03-02T02:36:59;10.70;99.90
17715;DHT22;8977;50.902;4.314;2024-03-02T02:39:27;10.70;99.90
17715;DHT22;8977;50.902;4.314;2024-03-02T02:41:54;10.70;99.90
17715;DHT22;8977;50.902;4.314;2024-03-02T02:44:21;10.70;99.90
17715;DHT22;8977;50.902;4.314;2024-03-02T02:46:48;10.70;99.90
17715;DHT22;8977;50.902;4.314;2024-03-02T02:49:15;10.70;99.90
17715;DHT22;8977;50.902;4.314;2024-03-02T02:51:42;10.80;99.90
17715;DHT22;8977;50.902;4.314;2024-03-02T02:54:09;10.70;99.90
17715;DHT22;8977;50.902;4.314;2024-03-02T02:56:37;10.70;99.90
17715;DHT22;8977;50.902;4.314;2024-03-02T02:59:04;10.80;99.90
17715;DHT22;8977;50.902;4.314;2024-03-02T03:01:31;10.70;99.90
17715;DHT22;8977;50.902;4.314;2024-03-02T03:03:58;10.60;99.90
17715;DHT22;8977;50.902;4.314;2024-03-02T03:06:25;10.60;99.90
17715;DHT22;8977;50.902;4.314;2024-03-02T03:08:51;10.70;99.90
17715;DHT22;8977;50.902;4.314;2024-03-02T03:11:18;10.70;99.90
17715;DHT22;8977;50.902;4.314;2024-03-02T03:13:46;10.70;99.90
17715;DHT22;8977;50.902;4.314;2024-03-02T03:16:13;10.70;99.90
17715;DHT22;8977;50.902;4.314;2024-03-02T03:18:40;10.70;99.90
17715;DHT22;8977;50.902;4.314;2024-03-02T03:21:07;10.70;99.90
17715;DHT22;8977;50.902;4.314;2024-03-02T03:23:34;10.70;99.90
17715;DHT22;8977;50.902;4.314;2024-03-02T03:26:01;10.70;99.90
17715;DHT22;8977;50.902;4.314;2024-03-02T03:28:28;10.80;99.90
17715;DHT22;8977;50.902;4.314;2024-03-02T03:30:56;10.70;99.90
17715;DHT22;8977;50.902;4.314;2024-03-02T03:33:23;10.70;99.90
17715;DHT22;8977;50.902;4.314;2024-03-02T03:35:50;10.70;99.90
17715;DHT22;8977;50.902;4.314;2024-03-02T03:38:18;10.60;99.90
17715;DHT22;8977;50.902;4.314;2024-03-02T03:40:45;10.60;99.90
17715;DHT22;8977;50.902;4.314;2024-03-02T03:43:13;10.60;99.90
17715;DHT22;8977;50.902;4.314;2024-03-02T03:45:39;10.70;99.90
17715;DHT22;8977;50.902;4.314;2024-03-02T03:48:08;10.70;99.90
17715;DHT22;8977;50.902;4.314;2024-03-02T03:50:35;10.70;99.90
17715;DHT22;8977;50.902;4.314;2024-03-02T03:53:03;10.60;99.90
17715;DHT22;8977;50.902;4.314;2024-03-02T03:55:30;10.60;99.90
17715;DHT22;8977;50.902;4.314;2024-03-02T03:57:57;10.70;99.90
17715;DHT22;8977;50.902;4.314;2024-03-02T04:00:24;10.70;99.90
17715;DHT22;8977;50.902;4.314;2024-03-02T04:02:51;10.70;99.90
17715;DHT22;8977;50.902;4.314;2024-03-02T04:05:19;10.70;99.90
17715;DHT22;8977;50.902;4.314;2024-03-02T04:07:46;10.60;99.90
17715;DHT22;8977;50.902;4.314;2024-03-02T04:10:13;10.60;99.90
17715;DHT22;8977;50.902;4.314;2024-03-02T04:12:41;10.60;99.90
17715;DHT22;8977;50.902;4.314;2024-03-02T04:15:08;10.60;99.90
17715;DHT22;8977;50.902;4.314;2024-03-02T04:17:35;10.60;99.90
17715;DHT22;8977;50.902;4.314;2024-03-02T04:20:02;10.60;99.90
17715;DHT22;8977;50.902;4.314;2024-03-02T04:22:34;10.60;99.90
17715;DHT22;8977;50.902;4.314;2024-03-02T04:25:02;10.70;99.90
17715;DHT22;8977;50.902;4.314;2024-03-02T04:27:30;10.60;99.90
17715;DHT22;8977;50.902;4.314;2024-03-02T04:29:58;10.60;99.90
17715;DHT22;8977;50.902;4.314;2024-03-02T04:32:26;10.60;99.90
17715;DHT22;8977;50.902;4.314;2024-03-02T04:34:53;10.50;99.90
17715;DHT22;8977;50.902;4.314;2024-03-02T04:37:20;10.60;99.90
17715;DHT22;8977;50.902;4.314;2024-03-02T04:39:48;10.60;99.90
17715;DHT22;8977;50.902;4.314;2024-03-02T04:42:15;10.60;99.90
17715;DHT22;8977;50.902;4.314;2024-03-02T04:44:42;10.60;99.90
17715;DHT22;8977;50.902;4.314;2024-03-02T04:47:09;10.80;99.90
17715;DHT22;8977;50.902;4.314;2024-03-02T04:49:35;10.60;99.90
17715;DHT22;8977;50.902;4.314;2024-03-02T04:52:01;10.60;99.90
17715;DHT22;8977;50.902;4.314;2024-03-02T04:54:28;10.60;99.90
17715;DHT22;8977;50.902;4.314;2024-03-02T04:56:57;10.60;99.90
17715;DHT22;8977;50.902;4.314;2024-03-02T04:59:24;10.50;99.90
17715;DHT22;8977;50.902;4.314;2024-03-02T05:01:51;10.50;99.90
17715;DHT22;8977;50.902;4.314;2024-03-02T05:04:17;10.60;99.90
17715;DHT22;8977;50.902;4.314;2024-03-02T05:06:44;10.50;99.90
17715;DHT22;8977;50.902;4.314;2024-03-02T05:09:17;10.50;99.90
17715;DHT22;8977;50.902;4.314;2024-03-02T05:11:44;10.50;99.90
17715;DHT22;8977;50.902;4.314;2024-03-02T05:14:36;10.50;99.90
17715;DHT22;8977;50.902;4.314;2024-03-02T05:17:04;10.40;99.90
17715;DHT22;8977;50.902;4.314;2024-03-02T05:19:31;10.50;99.90
17715;DHT22;8977;50.902;4.314;2024-03-02T05:21:58;10.50;99.90
17715;DHT22;8977;50.902;4.314;2024-03-02T05:24:24;10.50;99.90
17715;DHT22;8977;50.902;4.314;2024-03-02T05:26:53;10.50;99.90
17715;DHT22;8977;50.902;4.314;2024-03-02T05:29:20;10.40;99.90
17715;DHT22;8977;50.902;4.314;2024-03-02T05:31:48;10.40;99.90
17715;DHT22;8977;50.902;4.314;2024-03-02T05:34:15;10.50;99.90
17715;DHT22;8977;50.902;4.314;2024-03-02T05:36:42;10.40;99.90
17715;DHT22;8977;50.902;4.314;2024-03-02T05:39:09;10.50;99.90
17715;DHT22;8977;50.902;4.314;2024-03-02T05:41:36;10.50;99.90
17715;DHT22;8977;50.902;4.314;2024-03-02T05:44:04;10.50;99.90
17715;DHT22;8977;50.902;4.314;2024-03-02T05:46:30;10.50;99.90
17715;DHT22;8977;50.902;4.314;2024-03-02T05:48:59;10.50;99.90
17715;DHT22;8977;50.902;4.314;2024-03-02T05:51:26;10.50;99.90
17715;DHT22;8977;50.902;4.314;2024-03-02T05:53:52;10.40;99.90
17715;DHT22;8977;50.902;4.314;2024-03-02T05:56:19;10.30;99.90
17715;DHT22;8977;50.902;4.314;2024-03-02T05:58:46;10.30;99.90
17715;DHT22;8977;50.902;4.314;2024-03-02T06:01:23;10.30;99.90
17715;DHT22;8977;50.902;4.314;2024-03-02T06:03:54;10.30;99.90
17715;DHT22;8977;50.902;4.314;2024-03-02T06:06:22;10.20;99.90
17715;DHT22;8977;50.902;4.314;2024-03-02T06:08:49;10.30;99.90
17715;DHT22;8977;50.902;4.314;2024-03-02T06:11:16;10.30;99.90
17715;DHT22;8977;50.902;4.314;2024-03-02T06:13:43;10.40;99.90
17715;DHT22;8977;50.902;4.314;2024-03-02T06:16:10;10.40;99.90
17715;DHT22;8977;50.902;4.314;2024-03-02T06:18:37;10.30;99.90
17715;DHT22;8977;50.902;4.314;2024-03-02T06:21:04;10.30;99.90
17715;DHT22;8977;50.902;4.314;2024-03-02T06:23:33;10.40;99.90
17715;DHT22;8977;50.902;4.314;2024-03-02T06:26:00;10.30;99.90
17715;DHT22;8977;50.902;4.314;2024-03-02T06:28:27;10.30;99.90
17715;DHT22;8977;50.902;4.314;2024-03-02T06:30:54;10.40;99.90
17715;DHT22;8977;50.902;4.314;2024-03-02T06:33:20;10.40;99.90
17715;DHT22;8977;50.902;4.314;2024-03-02T06:35:47;10.30;99.90
17715;DHT22;8977;50.902;4.314;2024-03-02T06:38:14;10.30;99.90
17715;DHT22;8977;50.902;4.314;2024-03-02T06:40:42;10.40;99.90
17715;DHT22;8977;50.902;4.314;2024-03-02T06:43:09;10.40;99.90
17715;DHT22;8977;50.902;4.314;2024-03-02T06:45:36;10.30;99.90
17715;DHT22;8977;50.902;4.314;2024-03-02T06:48:03;10.20;99.90
17715;DHT22;8977;50.902;4.314;2024-03-02T06:50:30;10.30;99.90
17715;DHT22;8977;50.902;4.314;2024-03-02T06:52:57;10.30;99.90
17715;DHT22;8977;50.902;4.314;2024-03-02T06:55:24;10.30;99.90
17715;DHT22;8977;50.902;4.314;2024-03-02T06:57:53;10.30;99.90
17715;DHT22;8977;50.902;4.314;2024-03-02T07:00:20;10.30;99.90
17715;DHT22;8977;50.902;4.314;2024-03-02T07:02:46;10.20;99.90
17715;DHT22;8977;50.902;4.314;2024-03-02T07:05:13;10.30;99.90
17715;DHT22;8977;50.902;4.314;2024-03-02T07:07:40;10.30;99.90
17715;DHT22;8977;50.902;4.314;2024-03-02T07:10:07;10.30;99.90
17715;DHT22;8977;50.902;4.314;2024-03-02T07:12:34;10.30;99.90
17715;DHT22;8977;50.902;4.314;2024-03-02T07:15:03;10.30;99.90
17715;DHT22;8977;50.902;4.314;2024-03-02T07:17:54;10.30;99.90
17715;DHT22;8977;50.902;4.314;2024-03-02T07:20:21;10.30;99.90
17715;DHT22;8977;50.902;4.314;2024-03-02T07:22:48;10.30;99.90
17715;DHT22;8977;50.902;4.314;2024-03-02T07:25:15;10.30;99.90
17715;DHT22;8977;50.902;4.314;2024-03-02T07:27:42;10.30;99.90
17715;DHT22;8977;50.902;4.314;2024-03-02T07:30:14;10.30;99.90
17715;DHT22;8977;50.902;4.314;2024-03-02T07:32:41;10.30;99.90
17715;DHT22;8977;50.902;4.314;2024-03-02T07:35:11;10.30;99.90
17715;DHT22;8977;50.902;4.314;2024-03-02T07:37:38;10.40;99.90
17715;DHT22;8977;50.902;4.314;2024-03-02T07:40:06;10.30;99.90
17715;DHT22;8977;50.902;4.314;2024-03-02T07:42:36;10.30;99.90
17715;DHT22;8977;50.902;4.314;2024-03-02T07:45:04;10.30;99.90
17715;DHT22;8977;50.902;4.314;2024-03-02T07:47:33;10.30;99.90
17715;DHT22;8977;50.902;4.314;2024-03-02T07:50:00;10.40;99.90
17715;DHT22;8977;50.902;4.314;2024-03-02T07:52:27;10.40;99.90
17715;DHT22;8977;50.902;4.314;2024-03-02T07:54:54;10.40;99.90
17715;DHT22;8977;50.902;4.314;2024-03-02T07:57:21;10.50;99.90
17715;DHT22;8977;50.902;4.314;2024-03-02T07:59:48;10.50;99.90
17715;DHT22;8977;50.902;4.314;2024-03-02T08:02:15;10.40;99.90
17715;DHT22;8977;50.902;4.314;2024-03-02T08:04:44;10.40;99.90
17715;DHT22;8977;50.902;4.314;2024-03-02T08:07:12;10.50;99.90
17715;DHT22;8977;50.902;4.314;2024-03-02T08:09:39;10.50;99.90
17715;DHT22;8977;50.902;4.314;2024-03-02T08:12:06;10.60;99.90
17715;DHT22;8977;50.902;4.314;2024-03-02T08:14:34;10.60;99.90
17715;DHT22;8977;50.902;4.314;2024-03-02T08:17:01;10.50;99.90
17715;DHT22;8977;50.902;4.314;2024-03-02T08:19:28;10.50;99.90
17715;DHT22;8977;50.902;4.314;2024-03-02T08:21:56;10.60;99.90
17715;DHT22;8977;50.902;4.314;2024-03-02T08:24:24;10.60;99.90
17715;DHT22;8977;50.902;4.314;2024-03-02T08:26:51;10.60;99.90
17715;DHT22;8977;50.902;4.314;2024-03-02T08:29:19;10.60;99.90
17715;DHT22;8977;50.902;4.314;2024-03-02T08:31:45;10.70;99.90
17715;DHT22;8977;50.902;4.314;2024-03-02T08:34:12;10.70;99.90
17715;DHT22;8977;50.902;4.314;2024-03-02T08:36:39;10.80;99.90
17715;DHT22;8977;50.902;4.314;2024-03-02T08:39:08;10.80;99.90
17715;DHT22;8977;50.902;4.314;2024-03-02T08:41:41;10.80;99.90
17715;DHT22;8977;50.902;4.314;2024-03-02T08:44:08;10.80;99.90
17715;DHT22;8977;50.902;4.314;2024-03-02T08:46:35;10.80;99.90
17715;DHT22;8977;50.902;4.314;2024-03-02T08:49:04;10.80;99.90
17715;DHT22;8977;50.902;4.314;2024-03-02T08:51:31;10.90;99.90
17715;DHT22;8977;50.902;4.314;2024-03-02T08:53:58;10.90;99.90
17715;DHT22;8977;50.902;4.314;2024-03-02T08:56:27;10.90;99.90
17715;DHT22;8977;50.902;4.314;2024-03-02T08:58:54;11.00;99.90
17715;DHT22;8977;50.902;4.314;2024-03-02T09:01:20;11.10;99.90
17715;DHT22;8977;50.902;4.314;2024-03-02T09:03:48;11.10;99.90
17715;DHT22;8977;50.902;4.314;2024-03-02T09:06:15;11.20;99.90
17715;DHT22;8977;50.902;4.314;2024-03-02T09:08:43;11.20;99.90
17715;DHT22;8977;50.902;4.314;2024-03-02T09:11:10;11.20;99.90
17715;DHT22;8977;50.902;4.314;2024-03-02T09:13:39;11.20;99.90
17715;DHT22;8977;50.902;4.314;2024-03-02T09:16:07;11.30;99.90
17715;DHT22;8977;50.902;4.314;2024-03-02T09:18:36;11.40;99.90
17715;DHT22;8977;50.902;4.314;2024-03-02T09:21:04;11.50;99.90
17715;DHT22;8977;50.902;4.314;2024-03-02T09:23:31;11.40;99.90
17715;DHT22;8977;50.902;4.314;2024-03-02T09:25:58;11.40;99.90
17715;DHT22;8977;50.902;4.314;2024-03-02T09:28:25;11.40;99.90
17715;DHT22;8977;50.902;4.314;2024-03-02T09:30:53;11.50;99.90
17715;DHT22;8977;50.902;4.314;2024-03-02T09:33:20;11.60;99.90
17715;DHT22;8977;50.902;4.314;2024-03-02T09:35:47;11.50;99.90
17715;DHT22;8977;50.902;4.314;2024-03-02T09:38:14;11.50;99.90
17715;DHT22;8977;50.902;4.314;2024-03-02T09:40:41;11.60;99.90
17715;DHT22;8977;50.902;4.314;2024-03-02T09:43:09;11.60;99.90
17715;DHT22;8977;50.902;4.314;2024-03-02T09:45:36;11.70;99.90
17715;DHT22;8977;50.902;4.314;2024-03-02T09:48:05;11.70;99.90
17715;DHT22;8977;50.902;4.314;2024-03-02T09:50:32;11.70;99.90
17715;DHT22;8977;50.902;4.314;2024-03-02T09:52:59;11.80;99.90
17715;DHT22;8977;50.902;4.314;2024-03-02T09:55:26;11.90;99.90
17715;DHT22;8977;50.902;4.314;2024-03-02T09:57:53;11.90;99.90
17715;DHT22;8977;50.902;4.314;2024-03-02T10:00:21;11.90;99.90
17715;DHT22;8977;50.902;4.314;2024-03-02T10:02:48;11.80;99.90
17715;DHT22;8977;50.902;4.314;2024-03-02T10:05:25;11.80;99.90
17715;DHT22;8977;50.902;4.314;2024-03-02T10:07:59;11.80;99.90
17715;DHT22;8977;50.902;4.314;2024-03-02T10:10:35;11.80;99.90
17715;DHT22;8977;50.902;4.314;2024-03-02T10:13:06;11.80;99.90
17715;DHT22;8977;50.902;4.314;2024-03-02T10:15:33;11.80;99.90
17715;DHT22;8977;50.902;4.314;2024-03-02T10:18:00;11.80;99.90
17715;DHT22;8977;50.902;4.314;2024-03-02T10:20:28;11.80;99.90
17715;DHT22;8977;50.902;4.314;2024-03-02T10:22:55;11.90;99.90
17715;DHT22;8977;50.902;4.314;2024-03-02T10:25:29;11.90;99.90
17715;DHT22;8977;50.902;4.314;2024-03-02T10:27:57;11.90;99.90
17715;DHT22;8977;50.902;4.314;2024-03-02T10:30:25;12.00;99.90
17715;DHT22;8977;50.902;4.314;2024-03-02T10:32:53;12.20;99.90
17715;DHT22;8977;50.902;4.314;2024-03-02T10:35:20;12.30;99.90
17715;DHT22;8977;50.902;4.314;2024-03-02T10:37:49;12.30;99.90
17715;DHT22;8977;50.902;4.314;2024-03-02T10:40:16;12.30;99.90
17715;DHT22;8977;50.902;4.314;2024-03-02T10:42:44;12.40;99.90
17715;DHT22;8977;50.902;4.314;2024-03-02T10:45:12;12.40;99.90
17715;DHT22;8977;50.902;4.314;2024-03-02T10:47:39;12.50;99.90
17715;DHT22;8977;50.902;4.314;2024-03-02T10:50:07;12.50;99.90
17715;DHT22;8977;50.902;4.314;2024-03-02T10:52:34;12.60;99.90
17715;DHT22;8977;50.902;4.314;2024-03-02T10:55:02;12.70;99.90
17715;DHT22;8977;50.902;4.314;2024-03-02T10:57:36;12.60;99.90
17715;DHT22;8977;50.902;4.314;2024-03-02T11:00:11;12.70;99.90
17715;DHT22;8977;50.902;4.314;2024-03-02T11:02:42;12.60;99.90
17715;DHT22;8977;50.902;4.314;2024-03-02T11:05:13;12.50;99.90
17715;DHT22;8977;50.902;4.314;2024-03-02T11:07:43;12.50;99.90
17715;DHT22;8977;50.902;4.314;2024-03-02T11:10:12;12.50;99.90
17715;DHT22;8977;50.902;4.314;2024-03-02T11:12:49;12.50;99.90
17715;DHT22;8977;50.902;4.314;2024-03-02T11:15:18;12.50;99.90
17715;DHT22;8977;50.902;4.314;2024-03-02T11:17:46;12.50;99.90
17715;DHT22;8977;50.902;4.314;2024-03-02T11:20:14;12.40;99.90
17715;DHT22;8977;50.902;4.314;2024-03-02T11:22:44;12.40;99.90
17715;DHT22;8977;50.902;4.314;2024-03-02T11:25:24;12.50;99.90
17715;DHT22;8977;50.902;4.314;2024-03-02T11:28:05;12.40;99.90
17715;DHT22;8977;50.902;4.314;2024-03-02T11:30:50;12.40;99.90
17715;DHT22;8977;50.902;4.314;2024-03-02T11:33:23;12.40;99.90
17715;DHT22;8977;50.902;4.314;2024-03-02T11:35:52;12.40;99.90
17715;DHT22;8977;50.902;4.314;2024-03-02T11:38:19;12.40;99.90
17715;DHT22;8977;50.902;4.314;2024-03-02T11:40:48;12.40;99.90
17715;DHT22;8977;50.902;4.314;2024-03-02T11:43:14;12.40;99.90
17715;DHT22;8977;50.902;4.314;2024-03-02T11:45:43;12.40;99.90
17715;DHT22;8977;50.902;4.314;2024-03-02T11:48:11;12.40;99.90
17715;DHT22;8977;50.902;4.314;2024-03-02T11:50:41;12.40;99.90
17715;DHT22;8977;50.902;4.314;2024-03-02T11:53:10;12.40;99.90
17715;DHT22;8977;50.902;4.314;2024-03-02T11:55:38;12.40;99.90
17715;DHT22;8977;50.902;4.314;2024-03-02T11:58:07;12.40;99.90
17715;DHT22;8977;50.902;4.314;2024-03-02T12:00:34;12.50;99.90
17715;DHT22;8977;50.902;4.314;2024-03-02T12:03:03;12.40;99.90
17715;DHT22;8977;50.902;4.314;2024-03-02T12:05:30;12.50;99.90
17715;DHT22;8977;50.902;4.314;2024-03-02T12:07:58;12.50;99.90
17715;DHT22;8977;50.902;4.314;2024-03-02T12:10:25;12.60;99.90
17715;DHT22;8977;50.902;4.314;2024-03-02T12:12:56;12.60;99.90
17715;DHT22;8977;50.902;4.314;2024-03-02T12:15:25;12.60;99.90
17715;DHT22;8977;50.902;4.314;2024-03-02T12:17:54;12.60;99.90
17715;DHT22;8977;50.902;4.314;2024-03-02T12:20:21;12.60;99.90
17715;DHT22;8977;50.902;4.314;2024-03-02T12:22:50;12.60;99.90
17715;DHT22;8977;50.902;4.314;2024-03-02T12:25:18;12.60;99.90
17715;DHT22;8977;50.902;4.314;2024-03-02T12:27:45;12.70;99.90
17715;DHT22;8977;50.902;4.314;2024-03-02T12:30:12;12.80;99.90
17715;DHT22;8977;50.902;4.314;2024-03-02T12:32:41;12.80;99.90
17715;DHT22;8977;50.902;4.314;2024-03-02T12:35:09;12.90;99.90
17715;DHT22;8977;50.902;4.314;2024-03-02T12:37:43;12.80;99.90
17715;DHT22;8977;50.902;4.314;2024-03-02T12:40:10;12.90;99.90
17715;DHT22;8977;50.902;4.314;2024-03-02T12:42:38;13.00;99.90
17715;DHT22;8977;50.902;4.314;2024-03-02T12:45:05;13.00;99.90
17715;DHT22;8977;50.902;4.314;2024-03-02T12:47:33;13.10;99.90
17715;DHT22;8977;50.902;4.314;2024-03-02T12:50:02;13.20;99.90
17715;DHT22;8977;50.902;4.314;2024-03-02T12:52:29;13.10;99.90
17715;DHT22;8977;50.902;4.314;2024-03-02T12:54:58;13.10;99.90
17715;DHT22;8977;50.902;4.314;2024-03-02T12:57:26;13.00;99.90
17715;DHT22;8977;50.902;4.314;2024-03-02T12:59:58;13.00;99.90
17715;DHT22;8977;50.902;4.314;2024-03-02T13:02:28;13.00;99.90
17715;DHT22;8977;50.902;4.314;2024-03-02T13:04:55;13.00;99.90
17715;DHT22;8977;50.902;4.314;2024-03-02T13:07:25;13.00;99.90
17715;DHT22;8977;50.902;4.314;2024-03-02T13:09:53;13.00;99.90
17715;DHT22;8977;50.902;4.314;2024-03-02T13:12:21;13.00;99.90
17715;DHT22;8977;50.902;4.314;2024-03-02T13:14:48;13.00;99.90
17715;DHT22;8977;50.902;4.314;2024-03-02T13:17:17;13.00;99.90
17715;DHT22;8977;50.902;4.314;2024-03-02T13:19:51;13.00;99.90
17715;DHT22;8977;50.902;4.314;2024-03-02T13:22:18;13.10;99.90
17715;DHT22;8977;50.902;4.314;2024-03-02T13:24:47;13.10;99.90
17715;DHT22;8977;50.902;4.314;2024-03-02T13:27:14;13.10;99.90
17715;DHT22;8977;50.902;4.314;2024-03-02T13:29:41;13.10;99.90
17715;DHT22;8977;50.902;4.314;2024-03-02T13:32:08;13.10;99.90
17715;DHT22;8977;50.902;4.314;2024-03-02T13:34:36;13.00;99.90
17715;DHT22;8977;50.902;4.314;2024-03-02T13:37:03;13.00;99.90
17715;DHT22;8977;50.902;4.314;2024-03-02T13:39:31;13.10;99.90
17715;DHT22;8977;50.902;4.314;2024-03-02T13:42:01;13.00;99.90
17715;DHT22;8977;50.902;4.314;2024-03-02T13:44:31;13.00;99.90
17715;DHT22;8977;50.902;4.314;2024-03-02T13:47:00;13.00;99.90
17715;DHT22;8977;50.902;4.314;2024-03-02T13:49:27;13.00;99.90
17715;DHT22;8977;50.902;4.314;2024-03-02T13:51:59;13.00;99.90
17715;DHT22;8977;50.902;4.314;2024-03-02T13:54:28;13.00;99.90
17715;DHT22;8977;50.902;4.314;2024-03-02T13:56:55;13.00;99.90
17715;DHT22;8977;50.902;4.314;2024-03-02T13:59:25;13.00;99.90
17715;DHT22;8977;50.902;4.314;2024-03-02T14:01:52;13.10;99.90
17715;DHT22;8977;50.902;4.314;2024-03-02T14:04:19;13.10;99.90
17715;DHT22;8977;50.902;4.314;2024-03-02T14:06:46;13.10;99.90
17715;DHT22;8977;50.902;4.314;2024-03-02T14:09:13;13.10;99.90
17715;DHT22;8977;50.902;4.314;2024-03-02T14:11:40;13.10;99.90
17715;DHT22;8977;50.902;4.314;2024-03-02T14:14:07;13.00;99.90
17715;DHT22;8977;50.902;4.314;2024-03-02T14:16:35;13.00;99.90
17715;DHT22;8977;50.902;4.314;2024-03-02T14:19:02;13.00;99.90
17715;DHT22;8977;50.902;4.314;2024-03-02T14:21:30;13.00;99.90
17715;DHT22;8977;50.902;4.314;2024-03-02T14:23:57;13.10;99.90
17715;DHT22;8977;50.902;4.314;2024-03-02T14:26:24;13.00;99.90
17715;DHT22;8977;50.902;4.314;2024-03-02T14:28:51;13.00;99.90
17715;DHT22;8977;50.902;4.314;2024-03-02T14:31:18;13.00;99.90
17715;DHT22;8977;50.902;4.314;2024-03-02T14:33:47;13.00;99.90
17715;DHT22;8977;50.902;4.314;2024-03-02T14:36:14;13.00;99.90
17715;DHT22;8977;50.902;4.314;2024-03-02T14:38:40;13.00;99.90
17715;DHT22;8977;50.902;4.314;2024-03-02T14:41:07;13.00;99.90
17715;DHT22;8977;50.902;4.314;2024-03-02T14:43:34;13.00;99.90
17715;DHT22;8977;50.902;4.314;2024-03-02T14:46:03;12.90;99.90
17715;DHT22;8977;50.902;4.314;2024-03-02T14:48:30;12.90;99.90
17715;DHT22;8977;50.902;4.314;2024-03-02T14:50:59;12.90;99.90
17715;DHT22;8977;50.902;4.314;2024-03-02T14:53:26;12.90;99.90
17715;DHT22;8977;50.902;4.314;2024-03-02T14:55:53;13.00;99.90
17715;DHT22;8977;50.902;4.314;2024-03-02T14:58:20;12.90;99.90
17715;DHT22;8977;50.902;4.314;2024-03-02T15:00:47;12.90;99.90
17715;DHT22;8977;50.902;4.314;2024-03-02T15:03:14;12.90;99.90
17715;DHT22;8977;50.902;4.314;2024-03-02T15:05:42;12.80;99.90
17715;DHT22;8977;50.902;4.314;2024-03-02T15:08:10;12.90;99.90
17715;DHT22;8977;50.902;4.314;2024-03-02T15:10:37;12.90;99.90
17715;DHT22;8977;50.902;4.314;2024-03-02T15:13:04;12.80;99.90
17715;DHT22;8977;50.902;4.314;2024-03-02T15:15:31;12.80;99.90
17715;DHT22;8977;50.902;4.314;2024-03-02T15:17:57;12.80;99.90
17715;DHT22;8977;50.902;4.314;2024-03-02T15:20:24;12.80;99.90
17715;DHT22;8977;50.902;4.314;2024-03-02T15:22:51;12.80;99.90
17715;DHT22;8977;50.902;4.314;2024-03-02T15:25:20;12.80;99.90
17715;DHT22;8977;50.902;4.314;2024-03-02T15:27:46;12.80;99.90
17715;DHT22;8977;50.902;4.314;2024-03-02T15:30:14;12.80;99.90
17715;DHT22;8977;50.902;4.314;2024-03-02T15:32:40;12.80;99.90
17715;DHT22;8977;50.902;4.314;2024-03-02T15:35:08;12.80;99.90
17715;DHT22;8977;50.902;4.314;2024-03-02T15:37:35;12.80;99.90
17715;DHT22;8977;50.902;4.314;2024-03-02T15:40:01;12.80;99.90
17715;DHT22;8977;50.902;4.314;2024-03-02T15:42:33;12.80;99.90
17715;DHT22;8977;50.902;4.314;2024-03-02T15:45:00;12.80;99.90
17715;DHT22;8977;50.902;4.314;2024-03-02T15:47:27;12.80;99.90
17715;DHT22;8977;50.902;4.314;2024-03-02T15:49:54;12.80;99.90